createdAt,value
2022-12-06T00:01:39.845Z,70.07
2022-12-06T00:06:53.794Z,70.41
2022-12-06T00:11:57.616Z,70.26
2022-12-06T00:17:00.303Z,70.14
2022-12-06T00:22:03.013Z,70.04
2022-12-06T00:27:05.665Z,69.91
2022-12-06T00:32:08.485Z,70.07
2022-12-06T00:37:11.243Z,70.66
2022-12-06T00:42:14.090Z,70.37
2022-12-06T00:47:16.779Z,70.99
2022-12-06T00:52:19.563Z,70.70
2022-12-06T00:57:22.182Z,70.61
2022-12-06T01:02:24.808Z,71.01
2022-12-06T01:07:27.435Z,71.34
2022-12-06T01:12:30.116Z,70.31
2022-12-06T01:17:32.876Z,70.84
2022-12-06T01:22:35.802Z,70.87
2022-12-06T01:27:38.479Z,70.94
2022-12-06T01:32:41.111Z,70.44
2022-12-06T01:37:43.798Z,70.56
2022-12-06T01:42:46.507Z,70.54
2022-12-06T01:47:49.458Z,70.34
2022-12-06T01:52:54.458Z,70.29
2022-12-06T01:58:00.062Z,70.00
2022-12-06T02:03:04.023Z,69.51
2022-12-06T02:08:10.144Z,70.43
2022-12-06T02:13:12.888Z,70.30
2022-12-06T02:18:20.406Z,69.84
2022-12-06T02:23:50.823Z,69.86
2022-12-06T02:29:12.273Z,69.14
2022-12-06T02:34:37.613Z,69.35
2022-12-06T02:40:06.290Z,68.65
2022-12-06T02:45:16.465Z,69.18
2022-12-06T02:50:22.136Z,68.49
2022-12-06T02:55:25.384Z,68.75
2022-12-06T03:00:35.258Z,68.61
2022-12-06T03:06:01.676Z,68.69
2022-12-06T03:11:04.496Z,68.88
2022-12-06T03:16:28.961Z,68.46
2022-12-06T03:21:40.330Z,68.77
2022-12-06T03:26:46.538Z,69.22
2022-12-06T03:31:50.057Z,68.68
2022-12-06T03:36:53.790Z,68.54
2022-12-06T03:41:59.060Z,68.06
2022-12-06T03:47:31.074Z,68.29
2022-12-06T03:52:34.455Z,67.75
2022-12-06T03:57:37.186Z,67.82
2022-12-06T04:02:39.813Z,67.73
2022-12-06T04:07:42.583Z,67.20
2022-12-06T04:13:03.399Z,67.39
2022-12-06T04:18:11.315Z,66.86
2022-12-06T04:23:13.952Z,66.54
2022-12-06T04:28:35.062Z,66.59
2022-12-06T04:33:56.369Z,65.87
2022-12-06T04:38:59.148Z,66.19
2022-12-06T04:44:01.835Z,66.15
2022-12-06T04:49:04.871Z,66.17
2022-12-06T04:54:07.573Z,66.03
2022-12-06T04:59:10.401Z,66.09
2022-12-06T05:04:13.271Z,65.75
2022-12-06T05:09:16.436Z,65.57
2022-12-06T05:14:19.066Z,65.75
2022-12-06T05:19:21.867Z,65.67
2022-12-06T05:24:24.608Z,64.77
2022-12-06T05:29:27.227Z,65.01
2022-12-06T05:34:29.876Z,65.49
2022-12-06T05:39:32.746Z,65.57
2022-12-06T05:44:35.456Z,65.38
2022-12-06T05:49:38.156Z,65.78
2022-12-06T05:54:40.767Z,65.54
2022-12-06T05:59:43.535Z,65.28
2022-12-06T06:04:46.171Z,65.28
2022-12-06T06:09:48.844Z,65.67
2022-12-06T06:14:52.192Z,65.44
2022-12-06T06:19:54.869Z,65.67
2022-12-06T06:24:57.559Z,65.95
2022-12-06T06:30:00.222Z,65.32
2022-12-06T06:35:03.996Z,65.25
2022-12-06T06:40:07.193Z,65.47
2022-12-06T06:45:10.413Z,65.06
2022-12-06T06:50:13.237Z,65.38
2022-12-06T06:55:15.922Z,65.69
2022-12-06T07:00:18.729Z,65.58
2022-12-06T07:05:21.516Z,65.00
2022-12-06T07:10:25.832Z,65.54
2022-12-06T07:15:28.495Z,65.48
2022-12-06T07:20:31.187Z,65.53
2022-12-06T07:25:33.791Z,65.63
2022-12-06T07:30:36.548Z,65.52
2022-12-06T07:41:04.990Z,65.75
2022-12-06T07:46:12.091Z,66.39
2022-12-06T07:51:14.828Z,65.98
2022-12-06T07:56:17.496Z,66.82
2022-12-06T08:01:20.429Z,66.79
2022-12-06T08:06:23.840Z,67.45
2022-12-06T08:11:26.837Z,67.13
2022-12-06T08:16:29.558Z,67.86
2022-12-06T08:21:32.078Z,68.40
2022-12-06T08:26:35.934Z,67.98
2022-12-06T08:31:38.736Z,68.50
2022-12-06T08:36:41.804Z,68.91
2022-12-06T08:41:58.446Z,68.86
2022-12-06T08:47:02.269Z,69.21
2022-12-06T08:52:05.317Z,68.97
2022-12-06T08:57:08.240Z,69.05
2022-12-06T09:02:13.807Z,69.10
2022-12-06T09:07:16.456Z,69.90
2022-12-06T09:12:19.168Z,70.13
2022-12-06T09:17:21.924Z,69.56
2022-12-06T09:22:24.733Z,70.26
2022-12-06T09:27:30.490Z,70.52
2022-12-06T09:32:33.182Z,70.57
2022-12-06T09:37:35.875Z,70.02
2022-12-06T09:43:01.779Z,70.66
2022-12-06T09:48:53.001Z,71.00
2022-12-06T09:54:20.159Z,70.52
2022-12-06T09:59:32.176Z,71.26
2022-12-06T10:04:59.019Z,71.60
2022-12-06T10:10:17.713Z,71.06
2022-12-06T10:15:20.478Z,71.03
2022-12-06T10:20:25.913Z,71.82
2022-12-06T10:25:39.637Z,71.58
2022-12-06T10:30:52.601Z,71.11
2022-12-06T10:36:04.212Z,71.16
2022-12-06T10:41:34.892Z,72.41
2022-12-06T10:46:56.359Z,71.67
2022-12-06T10:52:05.051Z,71.45
2022-12-06T10:57:14.655Z,71.51
2022-12-06T11:02:23.458Z,71.80
2022-12-06T11:07:31.510Z,71.80
2022-12-06T11:12:36.042Z,71.69
2022-12-06T11:17:40.720Z,71.78
2022-12-06T11:23:06.413Z,71.27
2022-12-06T11:28:32.396Z,71.92
2022-12-06T11:33:35.347Z,71.42
2022-12-06T11:38:41.144Z,72.32
2022-12-06T11:43:45.881Z,72.03
2022-12-06T11:48:48.766Z,71.64
2022-12-06T11:54:07.580Z,71.72
2022-12-06T11:59:25.561Z,71.66
2022-12-06T12:04:44.510Z,71.66
2022-12-06T12:10:01.053Z,72.39
2022-12-06T12:15:04.069Z,72.35
2022-12-06T12:20:08.686Z,71.63
2022-12-06T12:25:35.447Z,71.68
2022-12-06T12:30:41.362Z,72.02
2022-12-06T12:35:49.674Z,72.00
2022-12-06T12:40:54.616Z,71.81
2022-12-06T12:46:12.427Z,72.42
2022-12-06T12:51:28.410Z,71.96
2022-12-06T12:56:36.646Z,71.57
2022-12-06T13:02:05.831Z,71.76
2022-12-06T13:07:30.706Z,72.10
2022-12-06T13:12:42.940Z,72.21
2022-12-06T13:17:59.632Z,71.78
2022-12-06T13:23:09.080Z,71.81
2022-12-06T13:28:23.695Z,71.54
2022-12-06T13:33:27.884Z,71.72
2022-12-06T13:38:38.661Z,72.02
2022-12-06T13:43:41.349Z,72.39
2022-12-06T13:49:00.086Z,72.42
2022-12-06T13:54:05.674Z,71.80
2022-12-06T13:59:15.603Z,72.43
2022-12-06T14:09:38.371Z,72.53
2022-12-06T14:14:41.235Z,72.30
2022-12-06T14:19:49.683Z,72.69
2022-12-06T14:25:01.176Z,72.51
2022-12-06T14:30:14.981Z,72.55
2022-12-06T14:35:29.722Z,72.11
2022-12-06T14:40:56.687Z,72.65
2022-12-06T14:46:01.622Z,73.07
2022-12-06T14:51:04.670Z,72.90
2022-12-06T14:56:08.182Z,72.91
2022-12-06T15:01:20.486Z,73.01
2022-12-06T15:06:24.667Z,73.41
2022-12-06T15:11:48.504Z,73.40
2022-12-06T15:17:11.599Z,73.29
2022-12-06T15:22:21.361Z,73.33
2022-12-06T15:27:28.302Z,73.40
2022-12-06T15:32:31.056Z,73.30
2022-12-06T15:37:43.973Z,73.33
2022-12-06T15:42:51.590Z,73.72
2022-12-06T15:47:54.580Z,72.81
2022-12-06T15:52:57.144Z,72.80
2022-12-06T15:57:59.795Z,72.76
2022-12-06T16:03:03.307Z,73.28
2022-12-06T16:08:08.907Z,73.26
2022-12-06T16:13:25.021Z,73.48
2022-12-06T16:18:27.752Z,73.21
2022-12-06T16:24:12.689Z,73.55
2022-12-06T16:29:25.356Z,73.25
2022-12-06T16:34:29.941Z,73.24
2022-12-06T16:39:34.205Z,73.45
2022-12-06T16:44:58.130Z,73.33
2022-12-06T16:50:01.057Z,73.28
2022-12-06T16:55:04.191Z,73.26
2022-12-06T17:00:07.775Z,73.05
2022-12-06T17:05:21.004Z,73.51
2022-12-06T17:10:23.809Z,73.63
2022-12-06T17:15:26.468Z,73.87
2022-12-06T17:20:29.300Z,73.26
2022-12-06T17:25:31.927Z,73.18
2022-12-06T17:30:34.953Z,73.76
2022-12-06T17:35:37.578Z,73.81
2022-12-06T17:40:40.407Z,73.34
2022-12-06T17:45:43.082Z,73.18
2022-12-06T17:50:45.789Z,73.57
2022-12-06T17:55:48.516Z,73.23
2022-12-06T18:00:51.338Z,73.19
2022-12-06T18:05:54.854Z,73.26
2022-12-06T18:10:58.747Z,73.18
2022-12-06T18:16:01.637Z,72.89
2022-12-06T18:21:08.427Z,73.05
2022-12-06T18:26:14.779Z,73.02
2022-12-06T18:31:17.530Z,72.65
2022-12-06T18:36:20.995Z,73.32
2022-12-06T18:41:23.817Z,72.86
2022-12-06T18:46:27.222Z,72.84
2022-12-06T18:51:32.109Z,72.85
2022-12-06T18:56:35.478Z,72.69
2022-12-06T19:01:39.255Z,73.02
2022-12-06T19:06:43.197Z,73.23
2022-12-06T19:11:46.566Z,72.58
2022-12-06T19:16:51.233Z,72.80
2022-12-06T19:21:55.164Z,72.71
2022-12-06T19:27:00.938Z,72.66
2022-12-06T19:32:03.596Z,72.28
2022-12-06T19:37:06.267Z,72.89
2022-12-06T19:42:27.997Z,72.87
2022-12-06T19:47:30.737Z,72.80
2022-12-06T19:52:33.349Z,72.72
2022-12-06T19:57:36.230Z,72.87
2022-12-06T20:02:38.936Z,72.73
2022-12-06T20:07:41.706Z,73.06
2022-12-06T20:12:44.371Z,73.22
2022-12-06T20:17:47.193Z,73.34
2022-12-06T20:22:49.816Z,73.00
2022-12-06T20:27:52.560Z,72.94
2022-12-06T20:32:55.318Z,72.95
2022-12-06T20:37:58.116Z,73.33
2022-12-06T20:43:00.739Z,72.97
2022-12-06T20:48:03.434Z,73.44
2022-12-06T20:53:06.151Z,72.99
2022-12-06T20:58:08.786Z,73.16
2022-12-06T21:03:11.485Z,73.02
2022-12-06T21:08:14.310Z,73.38
2022-12-06T21:13:16.997Z,73.18
2022-12-06T21:18:20.055Z,73.36
2022-12-06T21:23:22.747Z,73.10
2022-12-06T21:28:25.422Z,72.79
2022-12-06T21:33:28.036Z,73.18
2022-12-06T21:38:31.466Z,73.33
2022-12-06T21:43:35.453Z,73.14
2022-12-06T21:48:38.478Z,72.93
2022-12-06T21:53:41.318Z,72.91
2022-12-06T21:58:44.891Z,73.27
2022-12-06T22:03:49.006Z,73.20
2022-12-06T22:08:57.887Z,73.22
2022-12-06T22:14:01.427Z,73.14
2022-12-06T22:19:04.419Z,73.40
2022-12-06T22:24:07.421Z,73.08
2022-12-06T22:29:10.281Z,72.74
2022-12-06T22:34:13.122Z,72.60
2022-12-06T22:39:15.755Z,72.78
2022-12-06T22:44:19.861Z,73.05
2022-12-06T22:49:22.579Z,72.66
2022-12-06T22:54:25.367Z,72.98
2022-12-06T22:59:28.014Z,72.91
2022-12-06T23:04:30.793Z,72.79
2022-12-06T23:09:33.635Z,72.88
2022-12-06T23:14:36.554Z,73.22
2022-12-06T23:19:39.105Z,73.20
2022-12-06T23:24:41.921Z,73.23
2022-12-06T23:29:44.706Z,73.49
2022-12-06T23:34:47.387Z,73.58
2022-12-06T23:39:50.020Z,74.01
2022-12-06T23:44:52.954Z,73.73
2022-12-06T23:49:55.711Z,73.95
2022-12-06T23:54:59.835Z,73.76
